Time;durP1;ratioP1;P1;durP2;ratioP2;P2;SDS_P1;SDS_P2;PMS_P1;PMS_P2;Temp;Humidity;BMP_temperature;BMP_pressure;BME280_temperature;BME280_humidity;BME280_pressure;Samples;Min_cycle;Max_cycle;Signal;HPM_P1;HPM_P2
2023/05/31 00:02:07;;;;;;;11.20;6.60;;;;;;;22.33;36.24;100040.23;107957;1254;61618;-66
2023/05/31 00:04:35;;;;;;;9.80;6.50;;;;;;;22.32;36.10;100036.85;107959;1253;60460;-66
2023/05/31 00:07:02;;;;;;;11.70;6.80;;;;;;;22.15;36.43;100040.63;108002;1253;72594;-66
2023/05/31 00:09:29;;;;;;;7.60;5.70;;;;;;;22.25;36.46;100043.17;108000;1259;69393;-66
2023/05/31 00:11:57;;;;;;;10.50;6.30;;;;;;;21.98;36.69;100042.46;107972;1253;71580;-66
2023/05/31 00:14:24;;;;;;;8.50;5.60;;;;;;;22.03;36.69;100042.22;107910;1254;61712;-66
2023/05/31 00:16:52;;;;;;;9.10;6.10;;;;;;;22.01;36.68;100046.35;107957;1253;60201;-67
2023/05/31 00:19:39;;;;;;;10.50;5.70;;;;;;;22.12;36.53;100043.59;107931;1253;73670;-66
2023/05/31 00:22:06;;;;;;;12.00;6.20;;;;;;;21.71;37.02;100044.55;107925;1259;70174;-67
2023/05/31 00:24:34;;;;;;;14.70;6.60;;;;;;;21.73;37.19;100040.66;107948;1256;71970;-67
2023/05/31 00:27:02;;;;;;;13.00;6.50;;;;;;;21.43;37.52;100045.52;108100;1254;61728;-67
2023/05/31 00:29:29;;;;;;;12.80;7.00;;;;;;;21.44;37.64;100047.78;108057;1253;60368;-67
2023/05/31 00:31:56;;;;;;;9.70;6.70;;;;;;;21.61;37.44;100047.39;108076;1259;73862;-67
2023/05/31 00:34:24;;;;;;;11.30;6.60;;;;;;;21.55;37.60;100047.23;108044;1259;70329;-67
2023/05/31 00:36:51;;;;;;;10.70;7.20;;;;;;;21.48;37.81;100044.34;108034;1253;70838;-66
2023/05/31 00:39:18;;;;;;;13.90;7.40;;;;;;;21.53;37.86;100051.33;108069;1253;60763;-67
2023/05/31 00:41:46;;;;;;;8.10;6.10;;;;;;;21.70;37.74;100054.14;108046;1258;60460;-66
2023/05/31 00:44:14;;;;;;;14.30;7.20;;;;;;;22.00;37.32;100053.40;108057;1252;72556;-67
2023/05/31 00:46:42;;;;;;;12.50;7.10;;;;;;;21.81;37.64;100054.61;108063;1259;71118;-67
2023/05/31 00:49:09;;;;;;;11.60;7.20;;;;;;;21.73;38.01;100058.77;108101;1254;71395;-66
2023/05/31 00:51:37;;;;;;;12.10;7.80;;;;;;;21.95;37.84;100055.80;108086;1254;61092;-67
2023/05/31 00:54:05;;;;;;;10.60;7.40;;;;;;;21.58;38.49;100059.26;108104;1254;60620;-67
2023/05/31 00:56:32;;;;;;;12.20;8.30;;;;;;;21.60;38.50;100051.98;107993;1253;73849;-65
2023/05/31 00:58:59;;;;;;;11.50;7.00;;;;;;;21.69;38.31;100052.63;107943;1254;69351;-67
2023/05/31 01:01:32;;;;;;;13.40;7.00;;;;;;;21.76;38.37;100056.33;107934;1254;74959;-68
2023/05/31 01:04:01;;;;;;;12.70;8.00;;;;;;;21.80;38.19;100060.41;107968;1253;61692;-67
2023/05/31 01:06:32;;;;;;;11.70;7.60;;;;;;;22.09;37.80;100057.28;107700;1253;59373;-67
2023/05/31 01:09:00;;;;;;;13.30;7.10;;;;;;;22.15;37.68;100058.88;107979;1254;73627;-67
2023/05/31 01:11:51;;;;;;;14.20;7.80;;;;;;;21.86;38.32;100059.80;108014;1253;70127;-68
2023/05/31 01:14:40;;;;;;;11.10;6.80;;;;;;;21.65;38.69;100063.02;107941;1253;72150;-68
2023/05/31 01:17:30;;;;;;;11.00;7.40;;;;;;;21.91;38.30;100062.79;108017;1258;61695;-67
2023/05/31 01:20:01;;;;;;;8.80;6.10;;;;;;;21.90;38.22;100065.16;107975;1254;60360;-69
2023/05/31 01:23:03;;;;;;;10.10;7.30;;;;;;;22.01;38.20;100066.20;108007;1254;73902;-67
2023/05/31 01:25:43;;;;;;;9.00;6.70;;;;;;;22.25;37.82;100064.43;107910;1260;70482;-68
2023/05/31 01:28:10;;;;;;;11.60;7.80;;;;;;;21.72;38.71;100069.52;108018;1254;72744;-67
2023/05/31 01:30:38;;;;;;;10.00;7.40;;;;;;;21.63;38.91;100067.80;108022;1254;60374;-66
2023/05/31 01:33:08;;;;;;;10.00;6.50;;;;;;;21.34;39.59;100067.30;108152;1254;60325;-67
2023/05/31 01:35:36;;;;;;;10.10;7.20;;;;;;;21.44;39.58;100068.64;108079;1254;72776;-67
2023/05/31 01:38:05;;;;;;;10.70;6.70;;;;;;;21.42;39.57;100067.70;107943;1254;70069;-67
2023/05/31 01:40:33;;;;;;;11.90;7.50;;;;;;;21.48;39.58;100070.98;108085;1254;72686;-67
2023/05/31 01:43:00;;;;;;;11.30;7.40;;;;;;;21.68;39.31;100073.09;108067;1253;60476;-68
2023/05/31 01:45:27;;;;;;;8.70;6.10;;;;;;;21.89;39.08;100080.23;107986;1254;60055;-67
2023/05/31 01:47:58;;;;;;;11.30;7.10;;;;;;;21.93;38.98;100074.69;107986;1256;73892;-67
2023/05/31 01:50:26;;;;;;;10.00;7.30;;;;;;;21.95;39.01;100079.54;108077;1254;70759;-69
2023/05/31 01:52:53;;;;;;;14.60;7.80;;;;;;;21.85;39.23;100086.45;107927;1254;71861;-67
2023/05/31 01:55:21;;;;;;;10.90;7.60;;;;;;;21.65;39.58;100088.35;108038;1254;60432;-67
2023/05/31 01:57:49;;;;;;;14.40;7.50;;;;;;;21.70;39.46;100092.44;108044;1255;59305;-67
2023/05/31 02:00:17;;;;;;;12.10;7.80;;;;;;;21.65;39.68;100092.99;107907;1254;73796;-67
2023/05/31 02:02:46;;;;;;;11.40;7.50;;;;;;;21.39;40.46;100090.45;107975;1259;68975;-67
2023/05/31 02:05:13;;;;;;;10.50;7.50;;;;;;;21.45;40.69;100095.54;107917;1254;72653;-67
2023/05/31 02:07:41;;;;;;;13.50;7.60;;;;;;;21.59;40.58;100085.41;108061;1254;60462;-67
2023/05/31 02:10:09;;;;;;;9.40;7.00;;;;;;;21.80;40.46;100088.83;108117;1254;60997;-68
2023/05/31 02:12:37;;;;;;;13.70;7.70;;;;;;;22.29;39.93;100084.31;108045;1258;76026;-68
2023/05/31 02:15:12;;;;;;;13.80;8.10;;;;;;;22.27;40.32;100090.29;108059;1254;70403;-67
2023/05/31 02:17:42;;;;;;;11.20;7.40;;;;;;;22.32;40.27;100093.16;108047;1254;71338;-67
2023/05/31 02:20:14;;;;;;;12.10;8.00;;;;;;;22.61;39.88;100081.55;108071;1254;61736;-67
2023/05/31 02:22:43;;;;;;;12.50;7.50;;;;;;;22.69;39.65;100085.67;108046;1258;60369;-67
2023/05/31 02:25:11;;;;;;;12.30;7.70;;;;;;;22.25;40.28;100090.96;108036;1254;74847;-67
2023/05/31 02:27:40;;;;;;;14.00;7.80;;;;;;;22.09;40.71;100081.77;107990;1253;69948;-67
2023/05/31 02:30:08;;;;;;;12.10;8.20;;;;;;;22.19;40.78;100086.43;107964;1254;71502;-67
2023/05/31 02:32:37;;;;;;;12.00;7.60;;;;;;;22.43;40.55;100080.83;107831;1257;61828;-66
2023/05/31 02:35:05;;;;;;;14.80;8.30;;;;;;;22.50;40.45;100091.52;107983;1254;60309;-66
2023/05/31 02:37:34;;;;;;;13.10;7.30;;;;;;;22.44;40.41;100101.14;108003;1254;73820;-65
2023/05/31 02:40:08;;;;;;;12.20;7.50;;;;;;;22.48;40.22;100109.32;108013;1253;69570;-65
2023/05/31 02:42:38;;;;;;;14.40;8.10;;;;;;;22.35;40.47;100117.92;107963;1259;72649;-66
2023/05/31 02:45:06;;;;;;;9.00;7.00;;;;;;;22.70;40.07;100115.96;107923;1253;61611;-68
2023/05/31 02:47:36;;;;;;;10.40;7.00;;;;;;;22.81;40.04;100120.23;107981;1254;60166;-66
2023/05/31 02:50:07;;;;;;;13.80;7.60;;;;;;;22.71;40.36;100134.56;107861;1254;74276;-66
2023/05/31 02:52:36;;;;;;;12.90;7.70;;;;;;;22.84;40.60;100128.70;107913;1260;69257;-67
2023/05/31 02:55:15;;;;;;;15.70;8.60;;;;;;;22.84;41.37;100131.23;108004;1254;70501;-68
2023/05/31 02:57:57;;;;;;;13.70;8.10;;;;;;;22.80;42.03;100130.31;107913;1257;61961;-66
2023/05/31 03:00:28;;;;;;;12.40;7.40;;;;;;;23.05;41.76;100125.98;107911;1254;60019;-67
2023/05/31 03:02:56;;;;;;;14.00;7.50;;;;;;;23.27;41.22;100126.34;108096;1254;73872;-67
2023/05/31 03:05:40;;;;;;;11.40;7.40;;;;;;;23.42;40.79;100131.63;107975;1255;70711;-67
2023/05/31 03:08:08;;;;;;;14.20;7.90;;;;;;;23.63;40.51;100135.64;108019;1259;72667;-67
2023/05/31 03:10:35;;;;;;;13.80;7.70;;;;;;;23.80;40.03;100141.98;108099;1254;61724;-67
2023/05/31 03:13:02;;;;;;;12.10;7.70;;;;;;;24.01;39.37;100146.80;108120;1254;60509;-69
2023/05/31 03:15:30;;;;;;;13.10;7.50;;;;;;;24.38;38.83;100150.08;107960;1254;73890;-68
2023/05/31 03:17:57;;;;;;;14.20;7.30;;;;;;;24.61;38.08;100152.91;108001;1259;68709;-67
2023/05/31 03:20:25;;;;;;;14.30;7.30;;;;;;;24.47;37.97;100148.50;107985;1259;72740;-68
2023/05/31 03:22:53;;;;;;;15.40;7.90;;;;;;;24.61;37.53;100153.29;108115;1258;60397;-67
2023/05/31 03:25:20;;;;;;;14.00;7.40;;;;;;;24.87;37.06;100150.41;107984;1253;61076;-68
2023/05/31 03:27:48;;;;;;;13.40;7.70;;;;;;;24.93;36.86;100151.96;108095;1257;73669;-67
2023/05/31 03:30:15;;;;;;;15.50;7.90;;;;;;;24.96;36.67;100155.81;108099;1258;68815;-67
2023/05/31 03:32:48;;;;;;;12.80;7.30;;;;;;;25.13;36.20;100161.01;108101;1255;73674;-69
2023/05/31 03:35:16;;;;;;;12.40;7.00;;;;;;;25.25;35.90;100160.59;108083;1253;61731;-68
2023/05/31 03:37:44;;;;;;;16.30;7.10;;;;;;;25.47;35.68;100158.76;108098;1253;59242;-67
2023/05/31 03:40:13;;;;;;;11.20;7.10;;;;;;;25.77;35.13;100158.45;107945;1256;71772;-66
2023/05/31 03:42:40;;;;;;;13.30;7.30;;;;;;;25.88;34.69;100162.98;108058;1259;70279;-68
2023/05/31 03:45:08;;;;;;;9.50;6.60;;;;;;;25.91;34.59;100164.79;108068;1254;72718;-72
2023/05/31 03:47:35;;;;;;;11.90;6.50;;;;;;;26.05;34.26;100169.86;107962;1257;60498;-68
2023/05/31 03:50:07;;;;;;;10.90;6.70;;;;;;;26.51;33.70;100173.83;107972;1259;59242;-67
2023/05/31 03:52:37;;;;;;;9.60;6.40;;;;;;;26.61;33.30;100173.66;107996;1254;73808;-67
2023/05/31 03:55:05;;;;;;;16.40;6.50;;;;;;;26.45;33.55;100176.61;108069;1253;68680;-67
2023/05/31 03:57:33;;;;;;;11.30;6.20;;;;;;;26.66;33.08;100184.14;108018;1258;72809;-67
2023/05/31 04:00:00;;;;;;;10.70;6.20;;;;;;;27.15;32.51;100186.08;108117;1260;61712;-68
2023/05/31 04:02:28;;;;;;;13.60;6.00;;;;;;;27.33;32.13;100186.88;108056;1254;60309;-68
2023/05/31 04:04:55;;;;;;;10.70;5.70;;;;;;;27.58;31.96;100189.58;108075;1259;73761;-69
2023/05/31 04:07:24;;;;;;;11.10;6.00;;;;;;;27.76;31.74;100192.91;108083;1258;69906;-68
2023/05/31 04:09:51;;;;;;;10.20;5.90;;;;;;;27.88;31.64;100191.61;108040;1254;71451;-67
2023/05/31 04:12:19;;;;;;;11.40;5.70;;;;;;;27.93;31.34;100191.83;107972;1259;60427;-68
2023/05/31 04:14:46;;;;;;;11.60;5.50;;;;;;;28.19;31.12;100193.09;108132;1254;60322;-68
2023/05/31 04:17:14;;;;;;;12.30;5.70;;;;;;;28.49;30.42;100197.52;108073;1254;73884;-68
2023/05/31 04:19:41;;;;;;;11.10;5.50;;;;;;;28.54;30.32;100199.70;107962;1254;70091;-65
2023/05/31 04:22:09;;;;;;;10.40;5.60;;;;;;;28.71;30.03;100207.21;108098;1258;72468;-67
2023/05/31 04:24:36;;;;;;;10.60;5.80;;;;;;;28.99;29.53;100206.02;107952;1254;60549;-69
2023/05/31 04:27:03;;;;;;;11.20;5.00;;;;;;;28.82;29.73;100208.10;107946;1254;60182;-68
2023/05/31 04:29:32;;;;;;;9.90;5.50;;;;;;;28.81;29.80;100206.81;108045;1254;73898;-68
2023/05/31 04:32:02;;;;;;;11.40;5.80;;;;;;;29.12;29.42;100214.10;108037;1254;69689;-68
2023/05/31 04:34:30;;;;;;;9.80;5.10;;;;;;;29.27;29.29;100213.12;107751;1253;73819;-68
2023/05/31 04:36:58;;;;;;;9.20;5.20;;;;;;;29.54;28.93;100212.04;108063;1255;60080;-68
2023/05/31 04:39:27;;;;;;;10.50;4.90;;;;;;;29.76;28.73;100213.65;108079;1254;60500;-68
2023/05/31 04:41:56;;;;;;;9.90;4.70;;;;;;;29.50;28.96;100219.35;107927;1254;73881;-67
2023/05/31 04:44:23;;;;;;;8.50;4.80;;;;;;;29.42;29.06;100222.24;107914;1254;69952;-69
2023/05/31 04:46:51;;;;;;;7.20;3.90;;;;;;;29.68;28.49;100218.75;107936;1257;71765;-68
2023/05/31 04:49:18;;;;;;;13.50;4.10;;;;;;;30.67;27.40;100218.23;107940;1254;62446;-69
2023/05/31 04:51:47;;;;;;;13.70;3.60;;;;;;;30.87;26.88;100220.98;108061;1254;60326;-68
2023/05/31 04:54:15;;;;;;;13.70;3.80;;;;;;;30.67;26.94;100227.69;107938;1260;73024;-67
2023/05/31 04:56:42;;;;;;;9.30;3.70;;;;;;;30.48;26.97;100231.45;107923;1254;69175;-68
2023/05/31 04:59:10;;;;;;;16.00;3.80;;;;;;;30.04;27.56;100233.53;108075;1257;72313;-68
2023/05/31 05:01:39;;;;;;;8.30;3.60;;;;;;;30.57;27.05;100235.25;107927;1254;60404;-67
2023/05/31 05:04:11;;;;;;;10.10;3.30;;;;;;;30.42;27.08;100234.65;107945;1254;60489;-68
2023/05/31 05:06:41;;;;;;;13.50;4.10;;;;;;;31.04;26.17;100231.33;107957;1254;73766;-68
2023/05/31 05:09:09;;;;;;;11.50;3.60;;;;;;;30.67;26.70;100233.63;107898;1254;70270;-69
2023/05/31 05:11:36;;;;;;;8.50;3.80;;;;;;;30.82;26.65;100230.77;108027;1254;70829;-70
2023/05/31 05:14:04;;;;;;;9.70;3.60;;;;;;;30.90;26.31;100229.05;107913;1260;60335;-67
2023/05/31 05:16:31;;;;;;;6.60;3.00;;;;;;;31.46;25.86;100226.10;107926;1260;60276;-68
2023/05/31 05:18:59;;;;;;;7.10;3.10;;;;;;;31.98;25.11;100226.10;107869;1253;72557;-68
2023/05/31 05:21:29;;;;;;;7.10;3.30;;;;;;;32.05;24.81;100227.95;107892;1254;70535;-69
2023/05/31 05:23:56;;;;;;;7.70;3.30;;;;;;;32.13;24.70;100225.02;107891;1256;72082;-69
2023/05/31 05:26:24;;;;;;;6.10;3.00;;;;;;;32.15;24.56;100223.20;108091;1254;60227;-69
2023/05/31 05:28:51;;;;;;;7.50;3.50;;;;;;;32.17;24.56;100228.20;107938;1254;60258;-68
2023/05/31 05:31:18;;;;;;;14.80;3.70;;;;;;;32.26;24.27;100226.90;107972;1254;72637;-68
2023/05/31 05:33:46;;;;;;;9.40;3.40;;;;;;;32.49;24.46;100227.05;108073;1260;70508;-69
2023/05/31 05:36:13;;;;;;;7.80;2.90;;;;;;;33.21;23.78;100230.35;108007;1255;72637;-69
2023/05/31 05:38:46;;;;;;;8.60;3.10;;;;;;;33.51;23.28;100236.52;108046;1255;60428;-69
2023/05/31 05:41:13;;;;;;;8.90;3.00;;;;;;;33.53;22.92;100239.08;108117;1258;60246;-69
2023/05/31 05:43:42;;;;;;;13.40;3.80;;;;;;;33.55;22.83;100240.52;108006;1254;64930;-68
2023/05/31 05:46:13;;;;;;;7.00;3.00;;;;;;;33.24;23.05;100244.11;108084;1253;70528;-68
2023/05/31 05:48:41;;;;;;;8.20;3.30;;;;;;;33.16;23.15;100250.30;108109;1254;72485;-70
2023/05/31 05:51:09;;;;;;;8.00;3.30;;;;;;;33.33;23.14;100250.89;108003;1254;60430;-69
2023/05/31 05:53:37;;;;;;;9.70;3.20;;;;;;;33.55;23.02;100246.73;108061;1259;59997;-68
2023/05/31 05:56:05;;;;;;;4.90;2.80;;;;;;;33.73;22.61;100243.63;107996;1254;72727;-68
2023/05/31 05:58:41;;;;;;;9.90;2.80;;;;;;;34.02;22.11;100246.73;108101;1254;61371;-69
2023/05/31 06:01:27;;;;;;;12.30;3.50;;;;;;;34.20;22.26;100242.84;108058;1253;73240;-69
2023/05/31 06:03:55;;;;;;;6.30;3.00;;;;;;;34.26;22.26;100242.67;107951;1254;172922;-69
2023/05/31 06:07:03;;;;;;;7.70;3.10;;;;;;;31.89;24.59;100240.86;104946;1289;600186;-68
2023/05/31 06:09:30;;;;;;;12.50;3.20;;;;;;;33.14;22.87;100243.14;107327;1263;60093;-68
2023/05/31 06:11:58;;;;;;;9.10;3.60;;;;;;;33.55;22.47;100244.52;107347;1264;59378;-68
2023/05/31 06:14:28;;;;;;;7.90;3.30;;;;;;;33.93;22.09;100250.98;107361;1263;71379;-69
2023/05/31 06:16:56;;;;;;;8.10;3.20;;;;;;;34.13;21.82;100252.08;107361;1263;69025;-69
2023/05/31 06:19:23;;;;;;;10.50;3.20;;;;;;;34.50;21.99;100249.23;107429;1263;63840;-68
2023/05/31 06:21:51;;;;;;;9.60;3.30;;;;;;;35.11;21.45;100245.14;107260;1261;306057;-69
2023/05/31 06:24:20;;;;;;;5.90;2.70;;;;;;;35.58;20.79;100247.09;107543;1261;59086;-70
2023/05/31 06:26:48;;;;;;;7.90;2.50;;;;;;;35.94;20.51;100246.27;107441;1263;63439;-69
2023/05/31 06:29:15;;;;;;;9.40;2.90;;;;;;;35.89;20.36;100243.36;107328;1264;61592;-69
2023/05/31 06:31:56;;;;;;;6.00;2.90;;;;;;;36.12;19.86;100242.64;107425;1263;63886;-69
2023/05/31 06:34:24;;;;;;;12.80;2.60;;;;;;;36.14;20.02;100244.31;107429;1263;59614;-69
2023/05/31 06:36:52;;;;;;;4.00;2.40;;;;;;;36.27;20.08;100242.65;107328;1264;59732;-69
2023/05/31 06:39:19;;;;;;;7.80;2.80;;;;;;;36.43;19.84;100239.79;107342;1263;64108;-69
2023/05/31 06:41:47;;;;;;;8.60;2.70;;;;;;;36.51;19.58;100238.58;107497;1260;60288;-69
2023/05/31 06:44:33;;;;;;;7.70;2.70;;;;;;;36.85;19.22;100240.81;107519;1262;62507;-69
2023/05/31 06:47:16;;;;;;;6.00;2.70;;;;;;;36.86;19.25;100239.11;107469;1259;59478;-68
2023/05/31 06:50:03;;;;;;;6.30;3.00;;;;;;;36.61;19.33;100236.60;107561;1259;59413;-69
2023/05/31 06:52:56;;;;;;;6.70;2.70;;;;;;;36.59;19.14;100237.35;107388;1261;64165;-69
2023/05/31 06:55:26;;;;;;;8.70;2.80;;;;;;;36.53;19.54;100240.55;107549;1259;61338;-69
2023/05/31 06:57:53;;;;;;;7.60;2.60;;;;;;;36.69;19.49;100240.22;107488;1260;64186;-69
2023/05/31 07:00:21;;;;;;;6.30;2.60;;;;;;;36.87;19.14;100241.94;107511;1260;59599;-68
2023/05/31 07:02:48;;;;;;;6.50;2.80;;;;;;;37.18;19.16;100240.02;107507;1260;59660;-69
2023/05/31 07:05:15;;;;;;;6.90;3.10;;;;;;;37.39;19.09;100241.36;107824;1254;64146;-69
2023/05/31 07:07:44;;;;;;;5.70;2.90;;;;;;;37.60;18.98;100243.02;107851;1254;61345;-69
2023/05/31 07:10:11;;;;;;;6.20;2.60;;;;;;;37.72;18.74;100248.86;107981;1254;65871;-69
2023/05/31 07:12:39;;;;;;;7.00;2.70;;;;;;;37.88;18.62;100244.23;107866;1254;59662;-69
2023/05/31 07:15:08;;;;;;;11.10;2.70;;;;;;;38.26;18.58;100240.38;107877;1254;59147;-69
2023/05/31 07:17:36;;;;;;;7.40;2.90;;;;;;;38.56;18.46;100235.71;108019;1254;63067;-69
2023/05/31 07:20:06;;;;;;;10.10;3.10;;;;;;;38.93;18.07;100232.84;107851;1254;60108;-70
2023/05/31 07:22:34;;;;;;;8.80;2.70;;;;;;;38.91;18.03;100234.00;107981;1254;63946;-69
2023/05/31 07:25:03;;;;;;;5.90;3.00;;;;;;;38.75;18.39;100232.79;107934;1257;59658;-69
2023/05/31 07:27:31;;;;;;;8.80;2.40;;;;;;;38.78;18.22;100232.37;108120;1254;59502;-69
2023/05/31 07:29:58;;;;;;;8.40;2.70;;;;;;;38.68;18.28;100241.06;108131;1254;64294;-69
2023/05/31 07:32:25;;;;;;;8.10;3.00;;;;;;;38.57;18.30;100244.43;108167;1254;60379;-69
2023/05/31 07:34:53;;;;;;;8.70;2.90;;;;;;;38.64;18.27;100246.13;108093;1256;62444;-69
2023/05/31 07:37:30;;;;;;;7.60;2.40;;;;;;;38.82;17.94;100246.93;108118;1253;59116;-70
2023/05/31 07:39:58;;;;;;;7.00;2.70;;;;;;;39.05;17.84;100247.40;108120;1254;59534;-69
2023/05/31 07:42:26;;;;;;;8.60;2.80;;;;;;;38.89;17.52;100242.32;108197;1254;62830;-69
2023/05/31 07:44:54;;;;;;;11.50;2.50;;;;;;;38.84;17.65;100245.84;108115;1259;60901;-69
2023/05/31 07:47:22;;;;;;;5.50;2.40;;;;;;;38.82;17.48;100247.23;108115;1259;63782;-69
2023/05/31 07:49:51;;;;;;;4.40;1.90;;;;;;;38.85;17.29;100247.34;108096;1254;59529;-70
2023/05/31 07:52:21;;;;;;;9.40;2.60;;;;;;;38.81;16.63;100248.68;108111;1254;59573;-69
2023/05/31 07:54:49;;;;;;;7.10;2.40;;;;;;;38.73;16.34;100253.99;108115;1254;64086;-69
2023/05/31 07:57:17;;;;;;;4.80;2.00;;;;;;;38.69;15.50;100257.98;108112;1253;60229;-70
2023/05/31 07:59:45;;;;;;;3.30;1.80;;;;;;;38.37;15.64;100255.86;108093;1255;62570;-70
2023/05/31 08:02:12;;;;;;;3.20;1.90;;;;;;;38.08;15.31;100258.91;108106;1253;59481;-69
2023/05/31 08:04:39;;;;;;;6.20;2.10;;;;;;;37.57;15.08;100256.87;108080;1254;59196;-69
2023/05/31 08:07:07;;;;;;;5.00;1.70;;;;;;;37.44;15.56;100260.41;108107;1258;64062;-69
2023/05/31 08:09:34;;;;;;;3.90;1.90;;;;;;;37.25;15.42;100261.65;108112;1253;61325;-69
2023/05/31 08:12:02;;;;;;;9.90;2.20;;;;;;;37.17;15.48;100260.70;108126;1253;62431;-70
2023/05/31 08:14:30;;;;;;;5.00;1.70;;;;;;;36.97;15.41;100263.75;108085;1254;59667;-69
2023/05/31 08:16:57;;;;;;;6.20;2.20;;;;;;;37.02;14.85;100262.69;108036;1254;59007;-70
2023/05/31 08:19:24;;;;;;;3.40;1.60;;;;;;;37.34;14.93;100270.66;108035;1253;64489;-69
2023/05/31 08:21:52;;;;;;;12.90;2.10;;;;;;;37.69;13.59;100266.08;108053;1254;60730;-69
2023/05/31 08:24:19;;;;;;;5.90;1.90;;;;;;;37.29;13.56;100267.48;108073;1254;63891;-69
2023/05/31 08:26:47;;;;;;;8.30;2.20;;;;;;;37.25;14.40;100266.00;107958;1257;59627;-69
2023/05/31 08:29:14;;;;;;;7.70;2.00;;;;;;;37.37;14.39;100261.84;107956;1254;59366;-70
2023/05/31 08:31:42;;;;;;;4.20;1.90;;;;;;;37.54;14.66;100260.30;107936;1254;62886;-69
2023/05/31 08:34:09;;;;;;;4.40;2.30;;;;;;;37.73;14.23;100263.78;107936;1255;72759;-69
2023/05/31 08:36:36;;;;;;;3.40;2.10;;;;;;;37.83;13.99;100260.67;107914;1254;63688;-69
2023/05/31 08:39:06;;;;;;;5.40;2.20;;;;;;;38.00;13.98;100263.71;107941;1257;59603;-69
2023/05/31 08:41:38;;;;;;;3.90;1.90;;;;;;;38.14;13.79;100268.20;107943;1254;59969;-70
2023/05/31 08:44:05;;;;;;;9.70;2.30;;;;;;;38.05;13.86;100267.20;107835;1254;64290;-69
2023/05/31 08:46:32;;;;;;;5.40;2.30;;;;;;;38.09;14.52;100265.77;107902;1254;61482;-69
2023/05/31 08:49:09;;;;;;;4.40;2.00;;;;;;;38.35;14.27;100254.59;107880;1256;63735;-69
2023/05/31 08:51:36;;;;;;;7.40;2.30;;;;;;;38.34;13.99;100254.48;107910;1254;60878;-70
2023/05/31 08:54:04;;;;;;;5.80;2.20;;;;;;;37.91;14.29;100256.25;107911;1259;59615;-70
2023/05/31 08:56:31;;;;;;;10.20;3.40;;;;;;;38.03;14.21;100252.55;107894;1254;62975;-70
2023/05/31 08:58:58;;;;;;;8.70;2.20;;;;;;;37.87;14.31;100257.49;107825;1254;60105;-70
2023/05/31 09:01:27;;;;;;;8.10;2.40;;;;;;;37.72;14.38;100257.40;107688;1254;63704;-70
2023/05/31 09:03:55;;;;;;;8.50;2.40;;;;;;;37.70;14.48;100251.09;107912;1254;58275;-70
2023/05/31 09:06:23;;;;;;;12.90;3.30;;;;;;;37.89;14.65;100258.86;107937;1254;59721;-70
2023/05/31 09:08:50;;;;;;;10.20;3.70;;;;;;;38.02;13.99;100259.52;107932;1254;64116;-69
2023/05/31 09:11:18;;;;;;;8.00;4.80;;;;;;;38.09;14.50;100261.89;107915;1259;60263;-70
2023/05/31 09:13:45;;;;;;;4.50;2.30;;;;;;;38.52;14.55;100261.21;107931;1259;63702;-69
2023/05/31 09:16:13;;;;;;;8.60;2.80;;;;;;;38.48;14.67;100259.94;107970;1254;59634;-69
2023/05/31 09:18:40;;;;;;;6.60;2.30;;;;;;;38.20;14.84;100259.81;107931;1254;59958;-70
2023/05/31 09:21:09;;;;;;;6.10;2.50;;;;;;;37.90;15.09;100256.23;107966;1254;64052;-69
2023/05/31 09:23:37;;;;;;;7.10;2.20;;;;;;;37.63;15.70;100253.05;107989;1254;61382;-69
2023/05/31 09:26:07;;;;;;;16.50;3.20;;;;;;;37.45;16.01;100254.61;107999;1254;63752;-68
2023/05/31 09:28:35;;;;;;;11.60;2.70;;;;;;;37.30;16.27;100262.79;108160;1253;59123;-70
2023/05/31 09:31:03;;;;;;;5.30;2.40;;;;;;;37.00;16.64;100262.27;108091;1260;59071;-69
2023/05/31 09:33:57;;;;;;;9.00;2.70;;;;;;;36.75;16.81;100260.20;108103;1254;64151;-69
2023/05/31 09:36:28;;;;;;;5.20;2.30;;;;;;;36.84;16.75;100256.31;108065;1254;61377;-69
2023/05/31 09:39:08;;;;;;;9.50;2.30;;;;;;;36.95;16.78;100254.46;108072;1257;62453;-70
2023/05/31 09:41:35;;;;;;;10.90;2.60;;;;;;;36.49;16.41;100258.07;108070;1254;59490;-69
2023/05/31 09:44:03;;;;;;;12.30;2.80;;;;;;;36.21;16.16;100257.90;108122;1254;59522;-69
2023/05/31 09:46:30;;;;;;;4.00;2.10;;;;;;;36.08;16.19;100251.09;107851;1254;63630;-69
2023/05/31 09:48:58;;;;;;;8.60;2.20;;;;;;;36.08;15.70;100251.64;108108;1253;60109;-69
2023/05/31 09:51:26;;;;;;;9.40;2.30;;;;;;;36.50;15.47;100249.42;108097;1254;63449;-69
2023/05/31 09:53:57;;;;;;;9.80;2.10;;;;;;;36.83;14.87;100252.82;108059;1254;59548;-69
2023/05/31 09:56:25;;;;;;;;;;;;;;;37.04;14.49;100250.23;107966;1254;59520;-69
2023/05/31 09:58:54;;;;;;;11.50;2.40;;;;;;;37.58;14.20;100249.55;107977;1254;64128;-69
2023/05/31 10:01:22;;;;;;;15.00;2.30;;;;;;;37.56;13.55;100249.27;107977;1254;60471;-70
2023/05/31 10:03:49;;;;;;;18.00;2.70;;;;;;;37.51;13.90;100242.86;107971;1257;63758;-70
2023/05/31 10:06:17;;;;;;;6.00;1.70;;;;;;;38.00;13.41;100237.90;108070;1254;59513;-70
2023/05/31 10:08:48;;;;;;;11.30;2.20;;;;;;;38.32;13.22;100239.49;108121;1253;59697;-70
2023/05/31 10:11:26;;;;;;;7.50;1.90;;;;;;;38.77;12.96;100245.83;108028;1253;64161;-70
2023/05/31 10:13:58;;;;;;;9.90;1.90;;;;;;;38.66;12.30;100256.41;107903;1254;60372;-69
2023/05/31 10:16:26;;;;;;;5.60;2.10;;;;;;;38.51;12.25;100251.58;108048;1254;63919;-70
2023/05/31 10:18:54;;;;;;;17.00;3.00;;;;;;;38.45;12.50;100255.40;108073;1254;60391;-69
2023/05/31 10:21:24;;;;;;;5.20;1.50;;;;;;;38.46;12.14;100251.54;108013;1254;60429;-69
2023/05/31 10:23:57;;;;;;;5.60;1.90;;;;;;;38.38;12.39;100252.80;108025;1254;65061;-70
2023/05/31 10:26:30;;;;;;;3.20;1.50;;;;;;;38.19;12.26;100246.66;108052;1254;61561;-69
2023/05/31 10:29:16;;;;;;;7.40;1.70;;;;;;;38.17;12.02;100244.11;107969;1259;63776;-69
2023/05/31 10:31:48;;;;;;;3.80;1.50;;;;;;;38.01;12.24;100244.57;107950;1255;60402;-70
2023/05/31 10:34:23;;;;;;;3.50;1.70;;;;;;;37.87;12.70;100246.78;107943;1256;60148;-70
2023/05/31 10:36:51;;;;;;;4.20;2.00;;;;;;;37.99;12.43;100252.51;107888;1254;64910;-70
2023/05/31 10:39:48;;;;;;;4.40;1.80;;;;;;;38.21;12.36;100255.11;107999;1254;61390;-69
2023/05/31 10:42:25;;;;;;;4.90;1.90;;;;;;;37.92;12.58;100256.48;107898;1254;72400;-70
2023/05/31 10:45:03;;;;;;;5.50;1.90;;;;;;;38.02;12.30;100263.52;107921;1259;60399;-69
2023/05/31 10:47:53;;;;;;;4.90;1.40;;;;;;;37.81;12.15;100256.02;107949;1254;59212;-69
2023/05/31 10:50:20;;;;;;;2.90;2.00;;;;;;;37.75;12.23;100246.20;107893;1254;65035;-69
2023/05/31 10:52:49;;;;;;;7.20;1.90;;;;;;;37.88;11.86;100244.80;107891;1254;61318;-69
2023/05/31 10:55:23;;;;;;;3.30;1.50;;;;;;;37.87;12.36;100248.70;107971;1254;63874;-68
2023/05/31 10:57:55;;;;;;;7.80;1.60;;;;;;;37.61;11.92;100244.05;107970;1254;60456;-69
2023/05/31 11:00:23;;;;;;;7.30;1.60;;;;;;;37.27;12.20;100243.94;108104;1254;58760;-69
2023/05/31 11:02:52;;;;;;;8.50;1.60;;;;;;;37.22;12.24;100244.83;108176;1252;63702;-69
2023/05/31 11:05:21;;;;;;;3.20;1.10;;;;;;;37.00;12.17;100249.58;108155;1254;61457;-69
2023/05/31 11:07:49;;;;;;;4.40;1.50;;;;;;;37.02;12.41;100254.54;108115;1254;63672;-69
2023/05/31 11:10:27;;;;;;;6.10;1.60;;;;;;;37.14;12.19;100258.70;108142;1253;60414;-68
2023/05/31 11:13:02;;;;;;;7.60;1.40;;;;;;;37.43;11.98;100248.92;108099;1254;60328;-69
2023/05/31 11:15:40;;;;;;;6.70;1.50;;;;;;;37.46;11.80;100245.13;108039;1253;72954;-70
2023/05/31 11:18:09;;;;;;;4.10;1.40;;;;;;;37.30;11.81;100245.61;108215;1254;61367;-69
2023/05/31 11:20:36;;;;;;;5.60;1.70;;;;;;;37.32;11.68;100245.46;108145;1253;63735;-69
2023/05/31 11:23:17;;;;;;;3.40;1.30;;;;;;;37.69;11.52;100246.28;108092;1252;60303;-69
2023/05/31 11:25:45;;;;;;;9.80;2.50;;;;;;;37.43;11.41;100238.40;108134;1251;60306;-70
2023/05/31 11:28:12;;;;;;;3.10;1.60;;;;;;;37.28;11.52;100241.80;108213;1251;65039;-69